createdAt,value
2022-11-20T00:01:53.510Z,4.20
2022-11-20T00:04:21.018Z,3.77
2022-11-20T00:06:48.710Z,4.40
2022-11-20T00:09:16.190Z,3.90
2022-11-20T00:11:45.020Z,4.37
2022-11-20T00:14:12.504Z,4.03
2022-11-20T00:16:39.978Z,3.97
2022-11-20T00:19:13.349Z,3.57
2022-11-20T00:21:40.833Z,3.60
2022-11-20T00:24:10.481Z,3.63
2022-11-20T00:26:37.999Z,3.70
2022-11-20T00:29:07.089Z,3.97
2022-11-20T00:31:34.804Z,4.63
2022-11-20T00:34:02.294Z,3.97
2022-11-20T00:36:30.714Z,5.00
2022-11-20T00:38:59.080Z,3.87
2022-11-20T00:41:27.179Z,4.07
2022-11-20T00:43:55.493Z,4.10
2022-11-20T00:46:24.785Z,3.60
2022-11-20T00:48:52.255Z,3.70
2022-11-20T00:51:21.045Z,3.57
2022-11-20T00:53:48.781Z,3.33
2022-11-20T00:56:17.094Z,4.30
2022-11-20T00:58:45.997Z,3.40
2022-11-20T01:01:18.501Z,3.40
2022-11-20T01:03:47.937Z,3.27
2022-11-20T01:06:17.262Z,3.30
2022-11-20T01:08:45.083Z,3.10
2022-11-20T01:11:13.908Z,3.40
2022-11-20T01:13:41.893Z,3.43
2022-11-20T01:16:10.345Z,3.60
2022-11-20T01:18:38.148Z,3.17
2022-11-20T01:21:07.886Z,2.97
2022-11-20T01:23:35.833Z,3.40
2022-11-20T01:26:04.388Z,3.60
2022-11-20T01:28:32.366Z,3.37
2022-11-20T01:31:00.154Z,3.40
2022-11-20T01:33:29.732Z,3.33
2022-11-20T01:36:11.341Z,3.70
2022-11-20T01:38:41.622Z,3.27
2022-11-20T01:41:09.434Z,3.90
2022-11-20T01:43:36.175Z,3.10
2022-11-20T01:46:06.625Z,3.90
2022-11-20T01:48:36.177Z,3.47
2022-11-20T01:51:04.612Z,3.40
2022-11-20T01:53:33.565Z,3.50
2022-11-20T01:56:03.402Z,3.30
2022-11-20T01:58:32.465Z,3.50
2022-11-20T02:01:00.455Z,2.90
2022-11-20T02:03:30.233Z,3.57
2022-11-20T02:05:59.738Z,3.73
2022-11-20T02:08:27.198Z,3.40
2022-11-20T02:10:54.719Z,3.73
2022-11-20T02:13:41.420Z,3.40
2022-11-20T02:16:10.702Z,3.10
2022-11-20T02:18:38.262Z,3.53
2022-11-20T02:21:08.427Z,3.40
2022-11-20T02:23:40.304Z,3.20
2022-11-20T02:26:10.926Z,3.23
2022-11-20T02:28:38.559Z,2.93
2022-11-20T02:31:06.223Z,4.17
2022-11-20T02:33:33.653Z,3.50
2022-11-20T02:36:01.104Z,3.03
2022-11-20T02:38:28.706Z,3.23
2022-11-20T02:40:56.127Z,3.57
2022-11-20T02:43:25.018Z,3.60
2022-11-20T02:45:52.468Z,3.20
2022-11-20T02:48:19.932Z,2.90
2022-11-20T02:50:47.351Z,3.13
2022-11-20T02:53:14.805Z,3.20
2022-11-20T02:55:42.267Z,3.23
2022-11-20T02:58:09.698Z,2.70
2022-11-20T03:00:38.520Z,2.60
2022-11-20T03:03:05.966Z,2.57
2022-11-20T03:05:33.422Z,2.50
2022-11-20T03:08:00.885Z,2.30
2022-11-20T03:10:28.349Z,2.30
2022-11-20T03:12:56.931Z,2.30
2022-11-20T03:15:24.470Z,2.27
2022-11-20T03:17:56.702Z,2.43
2022-11-20T03:20:24.188Z,2.70
2022-11-20T03:22:51.700Z,2.10
2022-11-20T03:25:19.127Z,2.07
2022-11-20T03:27:46.622Z,2.23
2022-11-20T03:30:14.727Z,2.23
2022-11-20T03:32:42.189Z,1.70
2022-11-20T03:35:11.353Z,2.20
2022-11-20T03:37:38.853Z,2.27
2022-11-20T03:40:07.096Z,2.40
2022-11-20T03:42:46.919Z,2.10
2022-11-20T03:45:14.851Z,1.97
2022-11-20T03:47:42.473Z,2.10
2022-11-20T03:50:13.253Z,2.10
2022-11-20T03:52:40.888Z,2.37
2022-11-20T03:55:08.869Z,2.30
2022-11-20T03:57:36.330Z,1.70
2022-11-20T04:00:04.699Z,2.00
2022-11-20T04:02:32.232Z,2.13
2022-11-20T04:04:59.662Z,1.77
2022-11-20T04:07:28.453Z,1.70
2022-11-20T04:09:56.002Z,2.13
2022-11-20T04:12:23.459Z,2.77
2022-11-20T04:14:50.896Z,1.90
2022-11-20T04:17:18.314Z,2.23
2022-11-20T04:19:45.738Z,1.70
2022-11-20T04:22:13.396Z,2.10
2022-11-20T04:24:42.195Z,2.13
2022-11-20T04:27:09.727Z,1.77
2022-11-20T04:29:37.118Z,1.87
2022-11-20T04:32:04.617Z,1.87
2022-11-20T04:34:32.323Z,1.97
2022-11-20T04:36:59.814Z,1.90
2022-11-20T04:39:27.242Z,2.47
2022-11-20T04:42:09.955Z,1.90
2022-11-20T04:44:37.431Z,1.90
2022-11-20T04:47:04.884Z,1.70
2022-11-20T04:49:32.831Z,2.00
2022-11-20T04:52:00.334Z,3.33
2022-11-20T04:54:28.117Z,1.90
2022-11-20T04:56:56.945Z,2.50
2022-11-20T04:59:24.511Z,1.97
2022-11-20T05:01:52.277Z,1.80
2022-11-20T05:04:19.864Z,1.77
2022-11-20T05:06:47.365Z,1.60
2022-11-20T05:09:14.838Z,1.70
2022-11-20T05:11:42.304Z,2.03
2022-11-20T05:14:11.120Z,2.10
2022-11-20T05:16:38.550Z,1.70
2022-11-20T05:19:05.978Z,1.80
2022-11-20T05:21:33.593Z,2.03
2022-11-20T05:24:01.041Z,1.87
2022-11-20T05:26:28.982Z,1.70
2022-11-20T05:28:56.445Z,1.83
2022-11-20T05:31:28.120Z,2.20
2022-11-20T05:33:56.764Z,1.57
2022-11-20T05:36:24.458Z,2.10
2022-11-20T05:38:54.439Z,2.23
2022-11-20T05:41:24.418Z,1.73
2022-11-20T05:43:51.989Z,1.63
2022-11-20T05:46:24.767Z,1.70
2022-11-20T05:48:57.057Z,1.77
2022-11-20T05:51:24.545Z,2.07
2022-11-20T05:53:52.002Z,1.90
2022-11-20T05:56:22.515Z,2.30
2022-11-20T05:58:50.175Z,1.90
2022-11-20T06:01:18.629Z,2.20
2022-11-20T06:03:48.351Z,2.30
2022-11-20T06:06:17.367Z,2.30
2022-11-20T06:08:45.109Z,2.40
2022-11-20T06:11:13.345Z,2.30
2022-11-20T06:13:42.496Z,2.20
2022-11-20T06:16:10.229Z,2.50
2022-11-20T06:18:37.815Z,2.30
2022-11-20T06:21:06.680Z,2.67
2022-11-20T06:23:35.949Z,2.07
2022-11-20T06:26:03.817Z,2.20
2022-11-20T06:28:31.317Z,2.63
2022-11-20T06:30:58.881Z,3.13
2022-11-20T06:33:26.585Z,2.40
2022-11-20T06:35:59.590Z,2.57
2022-11-20T06:38:28.466Z,2.30
2022-11-20T06:40:57.607Z,2.40
2022-11-20T06:43:26.452Z,2.90
2022-11-20T06:45:54.243Z,3.20
2022-11-20T06:48:21.988Z,3.13
2022-11-20T06:50:49.389Z,2.80
2022-11-20T06:53:17.051Z,2.53
2022-11-20T06:55:44.621Z,2.70
2022-11-20T06:58:13.962Z,2.33
2022-11-20T07:00:41.730Z,2.50
2022-11-20T07:03:10.045Z,2.30
2022-11-20T07:05:37.644Z,2.23
2022-11-20T07:08:05.546Z,2.60
2022-11-20T07:10:33.276Z,2.20
2022-11-20T07:13:00.747Z,2.00
2022-11-20T07:15:30.031Z,2.30
2022-11-20T07:17:57.498Z,2.50
2022-11-20T07:20:24.920Z,2.17
2022-11-20T07:22:55.162Z,2.37
2022-11-20T07:25:22.617Z,2.20
2022-11-20T07:27:50.068Z,2.40
2022-11-20T07:30:17.686Z,2.30
2022-11-20T07:32:49.243Z,2.20
2022-11-20T07:35:16.796Z,2.27
2022-11-20T07:37:44.231Z,2.67
2022-11-20T07:40:12.370Z,4.13
2022-11-20T07:42:39.810Z,3.00
2022-11-20T07:45:07.775Z,2.80
2022-11-20T07:47:36.953Z,2.30
2022-11-20T07:50:08.437Z,2.60
2022-11-20T07:52:35.870Z,2.27
2022-11-20T07:55:03.304Z,2.70
2022-11-20T07:57:31.092Z,2.60
2022-11-20T07:59:58.491Z,2.57
2022-11-20T08:02:25.953Z,2.40
2022-11-20T08:04:53.479Z,2.13
2022-11-20T08:07:22.313Z,2.27
2022-11-20T08:09:49.786Z,2.33
2022-11-20T08:12:37.267Z,2.30
2022-11-20T08:15:09.785Z,2.40
2022-11-20T08:17:40.162Z,2.00
2022-11-20T08:20:07.963Z,2.47
2022-11-20T08:22:37.028Z,1.87
2022-11-20T08:25:04.696Z,1.90
2022-11-20T08:27:33.723Z,1.83
2022-11-20T08:30:02.500Z,2.97
2022-11-20T08:32:29.954Z,2.77
2022-11-20T08:34:57.410Z,2.30
2022-11-20T08:37:24.845Z,1.97
2022-11-20T08:39:54.702Z,2.27
2022-11-20T08:42:22.123Z,2.00
2022-11-20T08:44:49.861Z,1.90
2022-11-20T08:47:17.316Z,2.10
2022-11-20T08:49:44.859Z,2.40
2022-11-20T08:52:12.306Z,2.37
2022-11-20T08:54:39.773Z,2.30
2022-11-20T08:57:08.575Z,2.40
2022-11-20T09:00:05.656Z,2.27
2022-11-20T09:02:24.028Z,2.03
2022-11-20T09:04:51.493Z,1.70
2022-11-20T09:07:19.007Z,1.80
2022-11-20T09:09:46.511Z,1.70
2022-11-20T09:12:19.802Z,1.70
2022-11-20T09:14:52.219Z,1.70
2022-11-20T09:17:22.421Z,1.90
2022-11-20T09:19:49.905Z,1.60
2022-11-20T09:22:17.303Z,1.83
2022-11-20T09:24:44.746Z,2.00
2022-11-20T09:27:12.167Z,1.70
2022-11-20T09:29:40.957Z,1.70
2022-11-20T09:32:08.394Z,1.90
2022-11-20T09:34:35.799Z,1.80
2022-11-20T09:37:06.465Z,1.70
2022-11-20T09:39:39.614Z,2.47
2022-11-20T09:42:12.484Z,1.80
2022-11-20T09:44:51.289Z,2.00
2022-11-20T09:47:25.051Z,2.80
2022-11-20T09:50:00.369Z,2.03
2022-11-20T09:52:34.749Z,1.70
2022-11-20T09:55:03.697Z,1.57
2022-11-20T09:57:34.343Z,1.67
2022-11-20T10:00:03.724Z,1.50
2022-11-20T10:02:41.359Z,1.40
2022-11-20T10:05:17.298Z,1.57
2022-11-20T10:07:46.330Z,1.70
2022-11-20T10:10:17.183Z,1.47
2022-11-20T10:12:53.534Z,1.60
2022-11-20T10:15:29.989Z,1.70
2022-11-20T10:18:05.022Z,1.60
2022-11-20T10:20:40.888Z,1.83
2022-11-20T10:23:30.555Z,1.60
2022-11-20T10:26:03.079Z,1.60
2022-11-20T10:28:53.969Z,1.40
2022-11-20T10:31:30.303Z,1.67
2022-11-20T10:34:22.393Z,2.17
2022-11-20T10:36:51.623Z,1.53
2022-11-20T10:39:24.449Z,1.97
2022-11-20T10:41:53.740Z,1.77
2022-11-20T10:44:43.766Z,1.40
2022-11-20T10:47:14.858Z,1.60
2022-11-20T10:49:43.707Z,1.60
2022-11-20T10:52:14.361Z,2.10
2022-11-20T10:54:46.715Z,1.43
2022-11-20T10:57:19.278Z,1.30
2022-11-20T11:00:03.648Z,1.60
2022-11-20T11:02:37.201Z,1.83
2022-11-20T11:05:14.593Z,1.77
2022-11-20T11:07:42.400Z,1.60
2022-11-20T11:10:16.322Z,1.63
2022-11-20T11:12:45.824Z,1.63
2022-11-20T11:15:15.045Z,1.63
2022-11-20T11:17:49.057Z,1.57
2022-11-20T11:20:18.001Z,1.40
2022-11-20T11:22:46.890Z,1.60
2022-11-20T11:25:21.769Z,1.60
2022-11-20T11:27:49.766Z,1.70
2022-11-20T11:30:18.649Z,1.20
2022-11-20T11:32:47.224Z,1.60
2022-11-20T11:35:23.529Z,1.40
2022-11-20T11:37:51.940Z,1.90
2022-11-20T11:40:24.297Z,1.57
2022-11-20T11:42:54.924Z,1.90
2022-11-20T11:45:22.353Z,1.60
2022-11-20T11:47:50.462Z,1.40
2022-11-20T11:50:19.214Z,1.60
2022-11-20T11:52:50.913Z,1.53
2022-11-20T11:55:23.662Z,1.57
2022-11-20T11:57:54.569Z,1.80
2022-11-20T12:00:22.687Z,1.60
2022-11-20T12:02:54.568Z,2.30
2022-11-20T12:05:23.602Z,5.23
2022-11-20T12:07:55.683Z,1.70
2022-11-20T12:10:24.140Z,1.63
2022-11-20T12:12:56.945Z,3.00
2022-11-20T12:15:28.799Z,2.80
2022-11-20T12:17:56.613Z,3.80
2022-11-20T12:20:26.249Z,2.47
2022-11-20T12:22:58.648Z,2.53
2022-11-20T12:25:26.919Z,1.70
2022-11-20T12:28:12.138Z,1.47
2022-11-20T12:30:43.673Z,3.63
2022-11-20T12:33:17.559Z,1.20
2022-11-20T12:35:48.854Z,2.50
2022-11-20T12:38:46.362Z,3.33
2022-11-20T12:41:37.461Z,2.50
2022-11-20T12:44:27.899Z,2.40
2022-11-20T12:47:04.055Z,2.13
2022-11-20T12:49:34.898Z,3.70
2022-11-20T12:52:08.886Z,2.30
2022-11-20T12:54:40.765Z,2.67
2022-11-20T12:57:11.882Z,1.20
2022-11-20T12:59:50.907Z,1.90
2022-11-20T13:02:26.359Z,1.30
2022-11-20T13:05:03.524Z,1.63
2022-11-20T13:07:31.308Z,1.40
2022-11-20T13:10:00.920Z,1.30
2022-11-20T13:12:33.076Z,1.20
2022-11-20T13:15:03.997Z,1.57
2022-11-20T13:17:35.350Z,1.20
2022-11-20T13:20:03.891Z,1.30
2022-11-20T13:22:44.080Z,1.10
2022-11-20T13:25:16.342Z,1.33
2022-11-20T13:27:50.553Z,1.40
2022-11-20T13:30:19.227Z,1.50
2022-11-20T13:32:50.733Z,1.60
2022-11-20T13:35:26.117Z,1.83
2022-11-20T13:38:02.340Z,1.23
2022-11-20T13:40:29.800Z,3.10
2022-11-20T13:43:03.285Z,2.40
2022-11-20T13:45:31.479Z,2.00
2022-11-20T13:47:59.884Z,1.90
2022-11-20T13:50:40.135Z,2.30
2022-11-20T13:53:12.066Z,2.00
2022-11-20T13:55:40.450Z,2.20
2022-11-20T13:58:14.895Z,1.97
2022-11-20T14:00:46.041Z,1.50
2022-11-20T14:03:28.431Z,1.37
2022-11-20T14:06:07.651Z,1.50
2022-11-20T14:08:38.693Z,1.23
2022-11-20T14:11:06.901Z,1.50
2022-11-20T14:13:35.731Z,1.83
2022-11-20T14:16:03.696Z,1.80
2022-11-20T14:18:31.116Z,1.50
2022-11-20T14:21:01.952Z,1.80
2022-11-20T14:23:30.483Z,1.90
2022-11-20T14:25:58.558Z,1.70
2022-11-20T14:28:27.638Z,1.30
2022-11-20T14:30:57.269Z,1.63
2022-11-20T14:33:26.282Z,2.23
2022-11-20T14:35:55.242Z,2.60
2022-11-20T14:38:24.150Z,2.27
2022-11-20T14:40:51.596Z,2.43
2022-11-20T14:43:20.531Z,2.90
2022-11-20T14:45:50.673Z,2.60
2022-11-20T14:48:19.561Z,2.20
2022-11-20T14:50:47.028Z,1.50
2022-11-20T14:53:23.861Z,1.80
2022-11-20T14:55:59.045Z,2.33
2022-11-20T14:58:27.674Z,2.37
2022-11-20T15:00:56.029Z,2.43
2022-11-20T15:03:30.680Z,1.97
2022-11-20T15:05:59.304Z,4.23
2022-11-20T15:08:26.766Z,2.60
2022-11-20T15:10:54.729Z,3.90
2022-11-20T15:13:26.997Z,3.30
2022-11-20T15:15:55.870Z,3.57
2022-11-20T15:18:25.721Z,4.23
2022-11-20T15:20:53.660Z,3.33
2022-11-20T15:23:21.333Z,2.90
2022-11-20T15:25:49.378Z,4.20
2022-11-20T15:28:19.464Z,2.90
2022-11-20T15:30:47.363Z,8.00
2022-11-20T15:33:14.795Z,6.00
2022-11-20T15:35:45.282Z,4.73
2022-11-20T15:38:12.742Z,3.50
2022-11-20T15:40:40.214Z,3.47
2022-11-20T15:43:13.311Z,3.40
2022-11-20T15:45:42.959Z,3.17
2022-11-20T15:48:12.043Z,3.57
2022-11-20T15:50:40.577Z,2.67
2022-11-20T15:53:11.352Z,6.50
2022-11-20T15:55:38.766Z,3.40
2022-11-20T15:58:06.224Z,4.33
2022-11-20T16:00:33.687Z,3.50
2022-11-20T16:03:02.137Z,3.20
2022-11-20T16:05:30.036Z,3.60
2022-11-20T16:07:57.487Z,3.53
2022-11-20T16:10:26.374Z,3.23
2022-11-20T16:13:11.317Z,3.60
2022-11-20T16:15:47.395Z,3.60
2022-11-20T16:18:16.444Z,4.33
2022-11-20T16:20:44.294Z,5.23
2022-11-20T16:23:11.994Z,17.30
2022-11-20T16:25:41.166Z,6.53
2022-11-20T16:28:08.595Z,7.80
2022-11-20T16:30:36.418Z,4.63
2022-11-20T16:33:05.621Z,5.70
2022-11-20T16:35:33.058Z,5.63
2022-11-20T16:38:00.542Z,4.63
2022-11-20T16:40:28.248Z,7.13
2022-11-20T16:42:57.929Z,4.90
2022-11-20T16:45:27.961Z,6.10
2022-11-20T16:47:58.831Z,6.17
2022-11-20T16:50:26.313Z,5.50
2022-11-20T16:52:53.754Z,4.83
2022-11-20T16:55:21.183Z,4.80
2022-11-20T16:57:48.637Z,5.90
2022-11-20T17:00:17.781Z,4.93
2022-11-20T17:02:45.240Z,5.60
2022-11-20T17:05:12.671Z,5.23
2022-11-20T17:07:40.185Z,3.50
2022-11-20T17:10:08.067Z,3.43
2022-11-20T17:12:35.532Z,3.53
2022-11-20T17:15:03.024Z,3.70
2022-11-20T17:17:31.762Z,7.47
2022-11-20T17:19:59.190Z,5.67
2022-11-20T17:22:27.054Z,5.23
2022-11-20T17:24:54.505Z,5.53
2022-11-20T17:27:21.910Z,4.07
2022-11-20T17:29:49.382Z,3.63
2022-11-20T17:32:16.820Z,3.30
2022-11-20T17:34:45.583Z,4.00
2022-11-20T17:37:13.056Z,3.70
2022-11-20T17:39:40.854Z,5.30
2022-11-20T17:42:25.624Z,4.10
2022-11-20T17:44:53.073Z,4.27
2022-11-20T17:47:20.540Z,4.70
2022-11-20T17:49:49.385Z,5.10
2022-11-20T17:52:16.830Z,21.70
2022-11-20T17:54:44.254Z,10.30
2022-11-20T17:57:29.434Z,5.40
2022-11-20T17:59:56.886Z,4.47
2022-11-20T18:02:24.797Z,3.80
2022-11-20T18:04:53.579Z,3.77
2022-11-20T18:07:21.087Z,4.57
2022-11-20T18:09:48.543Z,4.27
2022-11-20T18:12:15.970Z,4.63
2022-11-20T18:14:43.617Z,4.50
2022-11-20T18:17:12.490Z,4.80
2022-11-20T18:19:48.047Z,4.57
2022-11-20T18:22:29.729Z,7.47
2022-11-20T18:24:57.166Z,5.60
2022-11-20T18:27:24.838Z,6.97
2022-11-20T18:29:52.708Z,5.07
2022-11-20T18:32:20.290Z,3.90
2022-11-20T18:34:47.886Z,3.40
2022-11-20T18:37:16.499Z,2.80
2022-11-20T18:39:45.574Z,2.37
2022-11-20T18:42:31.299Z,2.13
2022-11-20T18:45:00.187Z,1.90
2022-11-20T18:47:30.276Z,2.10
2022-11-20T18:49:58.394Z,2.37
2022-11-20T18:52:26.640Z,2.40
2022-11-20T18:54:55.891Z,1.83
2022-11-20T18:57:24.422Z,3.67
2022-11-20T18:59:53.577Z,4.37
2022-11-20T19:02:21.436Z,7.20
2022-11-20T19:04:49.668Z,8.43
2022-11-20T19:07:17.131Z,8.87
2022-11-20T19:09:45.597Z,8.50
2022-11-20T19:12:14.520Z,16.77
2022-11-20T19:14:42.051Z,15.70
2022-11-20T19:17:10.905Z,8.63
2022-11-20T19:19:38.348Z,6.20
2022-11-20T19:22:05.971Z,5.67
2022-11-20T19:24:33.822Z,5.13
2022-11-20T19:27:01.751Z,3.70
2022-11-20T19:29:31.076Z,4.37
2022-11-20T19:31:58.829Z,3.87
2022-11-20T19:34:26.834Z,4.13
2022-11-20T19:36:54.397Z,3.00
2022-11-20T19:39:23.006Z,2.07
2022-11-20T19:41:50.820Z,2.43
2022-11-20T19:44:19.375Z,2.67
2022-11-20T19:46:51.025Z,2.27
2022-11-20T19:49:18.556Z,2.00
2022-11-20T19:51:48.572Z,1.87
2022-11-20T19:54:16.684Z,1.60
2022-11-20T19:56:45.224Z,2.10
2022-11-20T19:59:12.931Z,2.77
2022-11-20T20:01:41.137Z,1.80
2022-11-20T20:04:09.987Z,1.60
2022-11-20T20:06:38.187Z,2.20
2022-11-20T20:09:06.717Z,2.00
2022-11-20T20:11:35.064Z,1.70
2022-11-20T20:14:02.897Z,2.47
2022-11-20T20:16:30.403Z,1.57
2022-11-20T20:18:58.639Z,1.83
2022-11-20T20:21:27.466Z,2.97
2022-11-20T20:23:55.899Z,1.90
2022-11-20T20:26:23.827Z,1.70
2022-11-20T20:28:51.306Z,2.00
2022-11-20T20:31:20.195Z,2.13
2022-11-20T20:33:47.755Z,1.73
2022-11-20T20:36:16.275Z,1.43
2022-11-20T20:38:46.400Z,1.53
2022-11-20T20:41:14.122Z,1.53
2022-11-20T20:43:59.243Z,1.50
2022-11-20T20:46:26.736Z,1.30
2022-11-20T20:48:55.043Z,1.63
2022-11-20T20:51:22.650Z,1.80
2022-11-20T20:53:51.669Z,1.40
2022-11-20T20:56:19.231Z,1.70
2022-11-20T20:58:46.721Z,1.43
2022-11-20T21:01:14.923Z,1.60
2022-11-20T21:03:42.837Z,1.50
2022-11-20T21:06:10.786Z,1.40
2022-11-20T21:08:40.614Z,3.53
2022-11-20T21:11:10.272Z,1.50
2022-11-20T21:13:38.806Z,2.10
2022-11-20T21:16:06.960Z,2.03
2022-11-20T21:18:34.681Z,1.70
2022-11-20T21:21:22.315Z,1.77
2022-11-20T21:23:49.720Z,1.50
2022-11-20T21:26:18.696Z,1.90
2022-11-20T21:28:46.334Z,1.40
2022-11-20T21:31:15.250Z,1.57
2022-11-20T21:33:43.579Z,1.57
2022-11-20T21:36:12.231Z,1.40
2022-11-20T21:38:39.725Z,1.50
2022-11-20T21:41:09.129Z,1.47
2022-11-20T21:43:38.270Z,1.30
2022-11-20T21:46:06.861Z,1.53
2022-11-20T21:48:35.260Z,1.40
2022-11-20T21:51:06.806Z,1.40
2022-11-20T21:53:35.002Z,1.27
2022-11-20T21:56:04.119Z,1.27
2022-11-20T21:58:31.562Z,1.20
2022-11-20T22:01:00.364Z,1.20
2022-11-20T22:03:29.234Z,1.43
2022-11-20T22:05:57.393Z,1.30
2022-11-20T22:08:25.405Z,1.33
2022-11-20T22:10:56.364Z,1.30
2022-11-20T22:13:41.443Z,1.20
2022-11-20T22:16:10.268Z,1.30
2022-11-20T22:18:38.113Z,1.23
2022-11-20T22:21:06.839Z,1.40
2022-11-20T22:23:34.600Z,1.13
2022-11-20T22:26:03.410Z,1.20
2022-11-20T22:28:30.862Z,1.40
2022-11-20T22:30:59.076Z,1.50
2022-11-20T22:33:28.861Z,1.30
2022-11-20T22:36:00.344Z,1.10
2022-11-20T22:38:29.764Z,1.40
2022-11-20T22:41:04.215Z,1.40
2022-11-20T22:43:31.941Z,1.50
2022-11-20T22:46:05.867Z,1.40
2022-11-20T22:48:35.269Z,1.40
2022-11-20T22:51:03.332Z,1.30
2022-11-20T22:53:30.800Z,1.20
2022-11-20T22:55:58.258Z,1.30
2022-11-20T22:58:25.725Z,1.50
2022-11-20T23:00:53.466Z,1.33
2022-11-20T23:03:20.946Z,1.40
2022-11-20T23:05:49.736Z,1.37
2022-11-20T23:08:17.156Z,1.37
2022-11-20T23:10:44.594Z,1.30
2022-11-20T23:13:12.026Z,1.40
2022-11-20T23:15:39.498Z,1.20
2022-11-20T23:18:07.013Z,1.30
2022-11-20T23:20:36.327Z,1.40
2022-11-20T23:23:05.108Z,1.47
2022-11-20T23:25:32.514Z,1.47
2022-11-20T23:27:59.999Z,1.47
2022-11-20T23:30:27.434Z,1.37
2022-11-20T23:32:54.875Z,1.33
2022-11-20T23:35:22.334Z,1.53
2022-11-20T23:37:49.757Z,1.43
2022-11-20T23:40:18.582Z,1.40
2022-11-20T23:42:59.988Z,1.40
2022-11-20T23:45:29.678Z,1.50
2022-11-20T23:47:57.176Z,1.27
2022-11-20T23:50:24.708Z,1.33
2022-11-20T23:52:52.152Z,1.50
2022-11-20T23:55:20.918Z,1.40
2022-11-20T23:57:48.347Z,1.50
